sensor_id;sensor_type;location;lat;lon;timestamp;P1;durP1;ratioP1;P2;durP2;ratioP2
78298;SDS011;67556;55.656;12.590;2023-03-14T00:01:09;17.33;;;4.60;;
78298;SDS011;67556;55.656;12.590;2023-03-14T00:03:36;14.63;;;4.65;;
78298;SDS011;67556;55.656;12.590;2023-03-14T00:06:04;19.58;;;4.75;;
78298;SDS011;67556;55.656;12.590;2023-03-14T00:08:32;13.05;;;3.92;;
78298;SDS011;67556;55.656;12.590;2023-03-14T00:11:03;16.90;;;4.18;;
78298;SDS011;67556;55.656;12.590;2023-03-14T00:13:30;16.42;;;4.50;;
78298;SDS011;67556;55.656;12.590;2023-03-14T00:16:00;16.10;;;5.07;;
78298;SDS011;67556;55.656;12.590;2023-03-14T00:18:28;16.65;;;4.50;;
78298;SDS011;67556;55.656;12.590;2023-03-14T00:20:56;17.95;;;4.13;;
78298;SDS011;67556;55.656;12.590;2023-03-14T00:23:23;16.17;;;4.40;;
78298;SDS011;67556;55.656;12.590;2023-03-14T00:25:51;20.88;;;5.25;;
78298;SDS011;67556;55.656;12.590;2023-03-14T00:28:17;13.48;;;3.90;;
78298;SDS011;67556;55.656;12.590;2023-03-14T00:30:44;14.57;;;4.25;;
78298;SDS011;67556;55.656;12.590;2023-03-14T00:33:10;14.18;;;4.15;;
78298;SDS011;67556;55.656;12.590;2023-03-14T00:35:36;19.73;;;4.68;;
78298;SDS011;67556;55.656;12.590;2023-03-14T00:38:03;18.75;;;4.35;;
78298;SDS011;67556;55.656;12.590;2023-03-14T00:40:29;17.30;;;3.60;;
78298;SDS011;67556;55.656;12.590;2023-03-14T00:42:57;18.15;;;4.22;;
78298;SDS011;67556;55.656;12.590;2023-03-14T00:45:23;12.95;;;3.35;;
78298;SDS011;67556;55.656;12.590;2023-03-14T00:47:49;14.82;;;4.13;;
78298;SDS011;67556;55.656;12.590;2023-03-14T00:50:17;16.42;;;4.60;;
78298;SDS011;67556;55.656;12.590;2023-03-14T00:52:44;11.40;;;3.45;;
78298;SDS011;67556;55.656;12.590;2023-03-14T00:55:12;14.05;;;3.92;;
78298;SDS011;67556;55.656;12.590;2023-03-14T00:57:39;15.85;;;3.78;;
78298;SDS011;67556;55.656;12.590;2023-03-14T01:00:07;18.60;;;4.47;;
78298;SDS011;67556;55.656;12.590;2023-03-14T01:02:37;13.68;;;3.90;;
78298;SDS011;67556;55.656;12.590;2023-03-14T01:05:04;13.38;;;4.03;;
78298;SDS011;67556;55.656;12.590;2023-03-14T01:07:31;11.43;;;3.80;;
78298;SDS011;67556;55.656;12.590;2023-03-14T01:09:57;19.70;;;3.50;;
78298;SDS011;67556;55.656;12.590;2023-03-14T01:12:23;18.02;;;4.18;;
78298;SDS011;67556;55.656;12.590;2023-03-14T01:14:50;20.08;;;4.07;;
78298;SDS011;67556;55.656;12.590;2023-03-14T01:17:17;19.23;;;4.15;;
78298;SDS011;67556;55.656;12.590;2023-03-14T01:19:44;13.95;;;3.20;;
78298;SDS011;67556;55.656;12.590;2023-03-14T01:22:10;15.73;;;4.10;;
78298;SDS011;67556;55.656;12.590;2023-03-14T01:24:36;19.23;;;3.78;;
78298;SDS011;67556;55.656;12.590;2023-03-14T01:27:03;16.40;;;3.30;;
78298;SDS011;67556;55.656;12.590;2023-03-14T01:29:29;16.63;;;3.65;;
78298;SDS011;67556;55.656;12.590;2023-03-14T01:31:56;11.52;;;3.53;;
78298;SDS011;67556;55.656;12.590;2023-03-14T01:34:24;15.75;;;3.45;;
78298;SDS011;67556;55.656;12.590;2023-03-14T01:36:50;16.52;;;3.28;;
78298;SDS011;67556;55.656;12.590;2023-03-14T01:39:16;11.30;;;3.30;;
78298;SDS011;67556;55.656;12.590;2023-03-14T01:41:43;12.20;;;3.67;;
78298;SDS011;67556;55.656;12.590;2023-03-14T01:44:09;12.85;;;3.60;;
78298;SDS011;67556;55.656;12.590;2023-03-14T01:46:39;15.27;;;3.90;;
78298;SDS011;67556;55.656;12.590;2023-03-14T01:49:15;18.85;;;4.25;;
78298;SDS011;67556;55.656;12.590;2023-03-14T01:51:48;17.30;;;3.92;;
78298;SDS011;67556;55.656;12.590;2023-03-14T01:54:20;14.85;;;3.70;;
78298;SDS011;67556;55.656;12.590;2023-03-14T01:56:51;13.15;;;3.45;;
78298;SDS011;67556;55.656;12.590;2023-03-14T01:59:21;16.88;;;3.75;;
78298;SDS011;67556;55.656;12.590;2023-03-14T02:01:48;15.13;;;3.78;;
78298;SDS011;67556;55.656;12.590;2023-03-14T02:04:18;11.90;;;3.30;;
78298;SDS011;67556;55.656;12.590;2023-03-14T02:06:51;14.60;;;3.75;;
78298;SDS011;67556;55.656;12.590;2023-03-14T02:09:22;23.17;;;4.43;;
78298;SDS011;67556;55.656;12.590;2023-03-14T02:11:49;13.27;;;4.30;;
78298;SDS011;67556;55.656;12.590;2023-03-14T02:14:20;16.08;;;3.58;;
78298;SDS011;67556;55.656;12.590;2023-03-14T02:16:52;17.90;;;3.70;;
78298;SDS011;67556;55.656;12.590;2023-03-14T02:19:20;12.43;;;3.40;;
78298;SDS011;67556;55.656;12.590;2023-03-14T02:21:56;10.95;;;3.60;;
78298;SDS011;67556;55.656;12.590;2023-03-14T02:24:33;13.90;;;3.78;;
78298;SDS011;67556;55.656;12.590;2023-03-14T02:27:09;12.63;;;3.40;;
78298;SDS011;67556;55.656;12.590;2023-03-14T02:29:39;13.68;;;4.65;;
78298;SDS011;67556;55.656;12.590;2023-03-14T02:32:11;15.40;;;3.38;;
78298;SDS011;67556;55.656;12.590;2023-03-14T02:34:38;12.48;;;4.03;;
78298;SDS011;67556;55.656;12.590;2023-03-14T02:37:08;13.70;;;3.35;;
78298;SDS011;67556;55.656;12.590;2023-03-14T02:39:36;15.80;;;4.18;;
78298;SDS011;67556;55.656;12.590;2023-03-14T02:42:06;14.27;;;4.13;;
78298;SDS011;67556;55.656;12.590;2023-03-14T02:44:34;14.15;;;3.95;;
78298;SDS011;67556;55.656;12.590;2023-03-14T02:47:02;16.02;;;3.75;;
78298;SDS011;67556;55.656;12.590;2023-03-14T02:49:29;17.38;;;3.40;;
78298;SDS011;67556;55.656;12.590;2023-03-14T02:51:58;11.68;;;3.25;;
78298;SDS011;67556;55.656;12.590;2023-03-14T02:54:24;17.60;;;3.90;;
78298;SDS011;67556;55.656;12.590;2023-03-14T02:56:50;15.80;;;3.70;;
78298;SDS011;67556;55.656;12.590;2023-03-14T02:59:17;16.77;;;3.67;;
78298;SDS011;67556;55.656;12.590;2023-03-14T03:01:44;15.82;;;3.72;;
78298;SDS011;67556;55.656;12.590;2023-03-14T03:04:11;19.13;;;4.22;;
78298;SDS011;67556;55.656;12.590;2023-03-14T03:06:37;16.48;;;3.17;;
78298;SDS011;67556;55.656;12.590;2023-03-14T03:09:03;15.57;;;4.60;;
78298;SDS011;67556;55.656;12.590;2023-03-14T03:11:30;11.63;;;3.45;;
78298;SDS011;67556;55.656;12.590;2023-03-14T03:13:57;13.73;;;4.00;;
78298;SDS011;67556;55.656;12.590;2023-03-14T03:16:24;13.00;;;4.43;;
78298;SDS011;67556;55.656;12.590;2023-03-14T03:18:51;16.55;;;3.85;;
78298;SDS011;67556;55.656;12.590;2023-03-14T03:21:18;14.80;;;3.88;;
78298;SDS011;67556;55.656;12.590;2023-03-14T03:23:48;11.82;;;3.40;;
78298;SDS011;67556;55.656;12.590;2023-03-14T03:26:14;12.90;;;3.65;;
78298;SDS011;67556;55.656;12.590;2023-03-14T03:28:41;17.38;;;4.43;;
78298;SDS011;67556;55.656;12.590;2023-03-14T03:31:07;9.48;;;3.50;;
78298;SDS011;67556;55.656;12.590;2023-03-14T03:33:35;13.75;;;3.95;;
78298;SDS011;67556;55.656;12.590;2023-03-14T03:36:03;17.17;;;4.00;;
78298;SDS011;67556;55.656;12.590;2023-03-14T03:38:30;13.60;;;4.75;;
78298;SDS011;67556;55.656;12.590;2023-03-14T03:40:56;15.85;;;4.03;;
78298;SDS011;67556;55.656;12.590;2023-03-14T03:43:23;19.10;;;5.20;;
78298;SDS011;67556;55.656;12.590;2023-03-14T03:45:49;16.15;;;3.78;;
78298;SDS011;67556;55.656;12.590;2023-03-14T03:48:16;14.98;;;4.00;;
78298;SDS011;67556;55.656;12.590;2023-03-14T03:50:43;15.95;;;4.68;;
78298;SDS011;67556;55.656;12.590;2023-03-14T03:53:12;15.50;;;5.60;;
78298;SDS011;67556;55.656;12.590;2023-03-14T03:55:40;16.55;;;4.68;;
78298;SDS011;67556;55.656;12.590;2023-03-14T03:58:07;15.30;;;4.68;;
78298;SDS011;67556;55.656;12.590;2023-03-14T04:03:08;14.07;;;4.07;;
78298;SDS011;67556;55.656;12.590;2023-03-14T04:05:35;14.50;;;4.25;;
78298;SDS011;67556;55.656;12.590;2023-03-14T04:08:01;15.00;;;4.18;;
78298;SDS011;67556;55.656;12.590;2023-03-14T04:10:33;12.30;;;3.72;;
78298;SDS011;67556;55.656;12.590;2023-03-14T04:13:00;19.70;;;3.85;;
78298;SDS011;67556;55.656;12.590;2023-03-14T04:15:26;16.92;;;4.57;;
78298;SDS011;67556;55.656;12.590;2023-03-14T04:17:55;14.13;;;4.03;;
78298;SDS011;67556;55.656;12.590;2023-03-14T04:20:22;15.88;;;3.53;;
78298;SDS011;67556;55.656;12.590;2023-03-14T04:22:49;19.48;;;4.75;;
78298;SDS011;67556;55.656;12.590;2023-03-14T04:25:15;16.35;;;3.97;;
78298;SDS011;67556;55.656;12.590;2023-03-14T04:27:43;14.88;;;4.47;;
78298;SDS011;67556;55.656;12.590;2023-03-14T04:30:10;14.05;;;3.67;;
78298;SDS011;67556;55.656;12.590;2023-03-14T04:32:38;16.73;;;4.38;;
78298;SDS011;67556;55.656;12.590;2023-03-14T04:35:05;14.70;;;4.10;;
78298;SDS011;67556;55.656;12.590;2023-03-14T04:37:33;12.63;;;4.03;;
78298;SDS011;67556;55.656;12.590;2023-03-14T04:39:59;9.60;;;3.45;;
78298;SDS011;67556;55.656;12.590;2023-03-14T04:42:26;17.83;;;4.93;;
78298;SDS011;67556;55.656;12.590;2023-03-14T04:44:54;18.75;;;4.53;;
78298;SDS011;67556;55.656;12.590;2023-03-14T04:47:20;16.35;;;4.15;;
78298;SDS011;67556;55.656;12.590;2023-03-14T04:49:46;18.48;;;4.88;;
78298;SDS011;67556;55.656;12.590;2023-03-14T04:52:13;17.75;;;4.18;;
78298;SDS011;67556;55.656;12.590;2023-03-14T04:54:39;16.92;;;3.90;;
78298;SDS011;67556;55.656;12.590;2023-03-14T04:57:05;15.13;;;3.70;;
78298;SDS011;67556;55.656;12.590;2023-03-14T04:59:32;12.48;;;3.83;;
78298;SDS011;67556;55.656;12.590;2023-03-14T05:01:59;11.93;;;3.75;;
78298;SDS011;67556;55.656;12.590;2023-03-14T05:04:26;14.25;;;4.00;;
78298;SDS011;67556;55.656;12.590;2023-03-14T05:06:52;9.82;;;3.42;;
78298;SDS011;67556;55.656;12.590;2023-03-14T05:09:19;17.85;;;3.72;;
78298;SDS011;67556;55.656;12.590;2023-03-14T05:11:45;10.05;;;3.03;;
78298;SDS011;67556;55.656;12.590;2023-03-14T05:14:12;18.52;;;4.15;;
78298;SDS011;67556;55.656;12.590;2023-03-14T05:16:38;14.18;;;3.97;;
78298;SDS011;67556;55.656;12.590;2023-03-14T05:19:06;13.68;;;3.55;;
78298;SDS011;67556;55.656;12.590;2023-03-14T05:21:32;12.50;;;3.42;;
78298;SDS011;67556;55.656;12.590;2023-03-14T05:23:59;11.13;;;3.60;;
78298;SDS011;67556;55.656;12.590;2023-03-14T05:26:26;10.27;;;3.42;;
78298;SDS011;67556;55.656;12.590;2023-03-14T05:28:52;13.07;;;3.22;;
78298;SDS011;67556;55.656;12.590;2023-03-14T05:31:19;14.55;;;3.95;;
78298;SDS011;67556;55.656;12.590;2023-03-14T05:33:45;13.57;;;3.75;;
78298;SDS011;67556;55.656;12.590;2023-03-14T05:36:13;9.20;;;3.05;;
78298;SDS011;67556;55.656;12.590;2023-03-14T05:38:39;17.33;;;3.92;;
78298;SDS011;67556;55.656;12.590;2023-03-14T05:41:06;11.63;;;4.38;;
78298;SDS011;67556;55.656;12.590;2023-03-14T05:43:32;14.38;;;4.28;;
78298;SDS011;67556;55.656;12.590;2023-03-14T05:45:59;10.68;;;3.20;;
78298;SDS011;67556;55.656;12.590;2023-03-14T05:48:25;13.48;;;3.50;;
78298;SDS011;67556;55.656;12.590;2023-03-14T05:50:55;12.38;;;3.65;;
78298;SDS011;67556;55.656;12.590;2023-03-14T05:53:23;14.57;;;4.47;;
78298;SDS011;67556;55.656;12.590;2023-03-14T05:55:50;11.27;;;2.88;;
78298;SDS011;67556;55.656;12.590;2023-03-14T05:58:17;10.63;;;3.63;;
78298;SDS011;67556;55.656;12.590;2023-03-14T06:00:44;9.85;;;3.33;;
78298;SDS011;67556;55.656;12.590;2023-03-14T06:03:10;12.73;;;3.40;;
78298;SDS011;67556;55.656;12.590;2023-03-14T06:05:37;17.48;;;3.70;;
78298;SDS011;67556;55.656;12.590;2023-03-14T06:08:03;11.90;;;3.22;;
78298;SDS011;67556;55.656;12.590;2023-03-14T06:10:31;13.23;;;4.78;;
78298;SDS011;67556;55.656;12.590;2023-03-14T06:12:58;8.57;;;3.22;;
78298;SDS011;67556;55.656;12.590;2023-03-14T06:15:24;14.27;;;3.90;;
78298;SDS011;67556;55.656;12.590;2023-03-14T06:17:50;11.05;;;3.88;;
78298;SDS011;67556;55.656;12.590;2023-03-14T06:20:17;13.50;;;3.90;;
78298;SDS011;67556;55.656;12.590;2023-03-14T06:22:43;11.02;;;3.85;;
78298;SDS011;67556;55.656;12.590;2023-03-14T06:25:10;12.23;;;3.40;;
78298;SDS011;67556;55.656;12.590;2023-03-14T06:27:38;12.57;;;3.38;;
78298;SDS011;67556;55.656;12.590;2023-03-14T06:30:05;10.73;;;3.53;;
78298;SDS011;67556;55.656;12.590;2023-03-14T06:32:33;9.20;;;3.38;;
78298;SDS011;67556;55.656;12.590;2023-03-14T06:34:59;11.32;;;3.92;;
78298;SDS011;67556;55.656;12.590;2023-03-14T06:37:26;13.05;;;4.38;;
78298;SDS011;67556;55.656;12.590;2023-03-14T06:39:52;11.07;;;3.83;;
78298;SDS011;67556;55.656;12.590;2023-03-14T06:42:19;11.23;;;4.40;;
78298;SDS011;67556;55.656;12.590;2023-03-14T06:44:46;11.80;;;4.47;;
78298;SDS011;67556;55.656;12.590;2023-03-14T06:49:43;10.18;;;3.33;;
78298;SDS011;67556;55.656;12.590;2023-03-14T06:52:09;11.73;;;4.13;;
78298;SDS011;67556;55.656;12.590;2023-03-14T06:54:36;10.80;;;4.10;;
78298;SDS011;67556;55.656;12.590;2023-03-14T06:57:02;12.25;;;3.80;;
78298;SDS011;67556;55.656;12.590;2023-03-14T06:59:29;9.70;;;3.88;;
78298;SDS011;67556;55.656;12.590;2023-03-14T07:01:56;9.63;;;3.90;;
78298;SDS011;67556;55.656;12.590;2023-03-14T07:04:23;12.43;;;4.85;;
78298;SDS011;67556;55.656;12.590;2023-03-14T07:06:49;12.15;;;3.72;;
78298;SDS011;67556;55.656;12.590;2023-03-14T07:09:16;10.75;;;4.38;;
78298;SDS011;67556;55.656;12.590;2023-03-14T07:11:43;13.38;;;4.38;;
78298;SDS011;67556;55.656;12.590;2023-03-14T07:14:09;10.55;;;3.97;;
78298;SDS011;67556;55.656;12.590;2023-03-14T07:16:36;10.82;;;4.15;;
78298;SDS011;67556;55.656;12.590;2023-03-14T07:19:04;9.73;;;4.22;;
78298;SDS011;67556;55.656;12.590;2023-03-14T07:21:31;11.88;;;4.00;;
78298;SDS011;67556;55.656;12.590;2023-03-14T07:23:59;11.32;;;4.25;;
78298;SDS011;67556;55.656;12.590;2023-03-14T07:26:26;9.30;;;4.03;;
78298;SDS011;67556;55.656;12.590;2023-03-14T07:28:52;7.63;;;4.38;;
78298;SDS011;67556;55.656;12.590;2023-03-14T07:31:18;10.80;;;4.60;;
78298;SDS011;67556;55.656;12.590;2023-03-14T07:33:45;7.00;;;4.22;;
78298;SDS011;67556;55.656;12.590;2023-03-14T07:36:12;7.05;;;3.92;;
78298;SDS011;67556;55.656;12.590;2023-03-14T07:38:39;8.70;;;4.13;;
78298;SDS011;67556;55.656;12.590;2023-03-14T07:41:05;8.88;;;4.32;;
78298;SDS011;67556;55.656;12.590;2023-03-14T07:43:32;10.63;;;4.32;;
78298;SDS011;67556;55.656;12.590;2023-03-14T07:45:59;7.82;;;3.78;;
78298;SDS011;67556;55.656;12.590;2023-03-14T07:48:25;9.40;;;3.95;;
78298;SDS011;67556;55.656;12.590;2023-03-14T07:50:53;8.25;;;3.90;;
78298;SDS011;67556;55.656;12.590;2023-03-14T07:53:22;7.30;;;4.00;;
78298;SDS011;67556;55.656;12.590;2023-03-14T07:55:50;7.93;;;4.15;;
78298;SDS011;67556;55.656;12.590;2023-03-14T07:58:16;8.00;;;4.53;;
78298;SDS011;67556;55.656;12.590;2023-03-14T08:00:43;6.82;;;3.92;;
78298;SDS011;67556;55.656;12.590;2023-03-14T08:03:09;9.55;;;4.00;;
78298;SDS011;67556;55.656;12.590;2023-03-14T08:05:36;9.65;;;3.80;;
78298;SDS011;67556;55.656;12.590;2023-03-14T08:08:03;6.95;;;4.25;;
78298;SDS011;67556;55.656;12.590;2023-03-14T08:10:31;7.15;;;3.72;;
78298;SDS011;67556;55.656;12.590;2023-03-14T08:12:58;8.43;;;4.07;;
78298;SDS011;67556;55.656;12.590;2023-03-14T08:15:26;7.05;;;4.18;;
78298;SDS011;67556;55.656;12.590;2023-03-14T08:17:55;6.88;;;4.00;;
78298;SDS011;67556;55.656;12.590;2023-03-14T08:20:22;8.70;;;4.25;;
78298;SDS011;67556;55.656;12.590;2023-03-14T08:22:49;9.48;;;4.38;;
78298;SDS011;67556;55.656;12.590;2023-03-14T08:25:16;6.65;;;3.75;;
78298;SDS011;67556;55.656;12.590;2023-03-14T08:27:44;7.05;;;4.40;;
78298;SDS011;67556;55.656;12.590;2023-03-14T08:30:11;9.48;;;4.43;;
78298;SDS011;67556;55.656;12.590;2023-03-14T08:32:39;5.93;;;3.65;;
78298;SDS011;67556;55.656;12.590;2023-03-14T08:35:07;7.80;;;3.90;;
78298;SDS011;67556;55.656;12.590;2023-03-14T08:37:34;6.15;;;3.63;;
78298;SDS011;67556;55.656;12.590;2023-03-14T08:40:01;5.97;;;3.53;;
78298;SDS011;67556;55.656;12.590;2023-03-14T08:42:31;8.65;;;3.80;;
78298;SDS011;67556;55.656;12.590;2023-03-14T08:44:59;9.30;;;3.80;;
78298;SDS011;67556;55.656;12.590;2023-03-14T08:47:25;8.68;;;4.20;;
78298;SDS011;67556;55.656;12.590;2023-03-14T08:49:52;8.82;;;4.22;;
78298;SDS011;67556;55.656;12.590;2023-03-14T08:52:19;8.60;;;4.28;;
78298;SDS011;67556;55.656;12.590;2023-03-14T08:54:45;7.30;;;3.83;;
78298;SDS011;67556;55.656;12.590;2023-03-14T08:57:12;6.82;;;3.95;;
78298;SDS011;67556;55.656;12.590;2023-03-14T08:59:38;7.82;;;3.95;;
78298;SDS011;67556;55.656;12.590;2023-03-14T09:02:08;9.30;;;4.10;;
78298;SDS011;67556;55.656;12.590;2023-03-14T09:04:35;12.30;;;4.68;;
78298;SDS011;67556;55.656;12.590;2023-03-14T09:07:01;8.88;;;3.88;;
78298;SDS011;67556;55.656;12.590;2023-03-14T09:09:28;7.18;;;4.38;;
78298;SDS011;67556;55.656;12.590;2023-03-14T09:11:55;3.35;;;2.75;;
78298;SDS011;67556;55.656;12.590;2023-03-14T09:14:21;2.47;;;1.80;;
78298;SDS011;67556;55.656;12.590;2023-03-14T09:16:48;1.55;;;1.42;;
78298;SDS011;67556;55.656;12.590;2023-03-14T09:19:17;2.53;;;1.67;;
78298;SDS011;67556;55.656;12.590;2023-03-14T09:21:43;1.48;;;1.38;;
78298;SDS011;67556;55.656;12.590;2023-03-14T09:24:10;3.58;;;1.63;;
78298;SDS011;67556;55.656;12.590;2023-03-14T09:26:36;2.65;;;1.60;;
78298;SDS011;67556;55.656;12.590;2023-03-14T09:29:02;3.35;;;1.75;;
78298;SDS011;67556;55.656;12.590;2023-03-14T09:31:29;3.75;;;1.95;;
78298;SDS011;67556;55.656;12.590;2023-03-14T09:33:55;3.97;;;2.03;;
78298;SDS011;67556;55.656;12.590;2023-03-14T09:36:23;6.90;;;2.20;;
78298;SDS011;67556;55.656;12.590;2023-03-14T09:38:50;6.53;;;2.42;;
78298;SDS011;67556;55.656;12.590;2023-03-14T09:41:17;5.32;;;2.35;;
78298;SDS011;67556;55.656;12.590;2023-03-14T09:43:47;6.55;;;2.53;;
78298;SDS011;67556;55.656;12.590;2023-03-14T09:46:16;5.25;;;1.85;;
78298;SDS011;67556;55.656;12.590;2023-03-14T09:48:43;5.97;;;2.20;;
78298;SDS011;67556;55.656;12.590;2023-03-14T09:51:11;3.08;;;2.13;;
78298;SDS011;67556;55.656;12.590;2023-03-14T09:53:42;3.83;;;2.22;;
78298;SDS011;67556;55.656;12.590;2023-03-14T09:56:11;3.75;;;2.05;;
78298;SDS011;67556;55.656;12.590;2023-03-14T09:58:40;5.18;;;2.20;;
78298;SDS011;67556;55.656;12.590;2023-03-14T10:01:08;4.78;;;2.42;;
78298;SDS011;67556;55.656;12.590;2023-03-14T10:03:39;5.22;;;2.47;;
78298;SDS011;67556;55.656;12.590;2023-03-14T10:06:10;7.47;;;2.38;;
78298;SDS011;67556;55.656;12.590;2023-03-14T10:08:38;5.40;;;1.92;;
78298;SDS011;67556;55.656;12.590;2023-03-14T10:11:09;6.88;;;2.28;;
78298;SDS011;67556;55.656;12.590;2023-03-14T10:13:46;5.30;;;1.83;;
78298;SDS011;67556;55.656;12.590;2023-03-14T10:16:14;9.60;;;2.70;;
78298;SDS011;67556;55.656;12.590;2023-03-14T10:18:43;3.67;;;1.83;;
78298;SDS011;67556;55.656;12.590;2023-03-14T10:21:17;8.25;;;2.35;;
78298;SDS011;67556;55.656;12.590;2023-03-14T10:23:47;4.28;;;2.30;;
78298;SDS011;67556;55.656;12.590;2023-03-14T10:26:15;5.65;;;2.20;;
78298;SDS011;67556;55.656;12.590;2023-03-14T10:28:43;5.30;;;1.83;;
78298;SDS011;67556;55.656;12.590;2023-03-14T10:31:11;5.32;;;2.03;;
78298;SDS011;67556;55.656;12.590;2023-03-14T10:33:38;5.65;;;2.38;;
78298;SDS011;67556;55.656;12.590;2023-03-14T10:36:10;4.93;;;1.95;;
78298;SDS011;67556;55.656;12.590;2023-03-14T10:38:43;3.05;;;1.90;;
78298;SDS011;67556;55.656;12.590;2023-03-14T10:41:15;4.10;;;1.70;;
78298;SDS011;67556;55.656;12.590;2023-03-14T10:43:44;6.22;;;2.47;;
78298;SDS011;67556;55.656;12.590;2023-03-14T10:46:13;2.38;;;1.52;;
78298;SDS011;67556;55.656;12.590;2023-03-14T10:48:42;3.00;;;1.70;;
78298;SDS011;67556;55.656;12.590;2023-03-14T10:51:11;5.28;;;2.30;;
78298;SDS011;67556;55.656;12.590;2023-03-14T10:53:45;1.70;;;1.42;;
78298;SDS011;67556;55.656;12.590;2023-03-14T10:56:13;2.92;;;1.45;;
78298;SDS011;67556;55.656;12.590;2023-03-14T10:58:42;5.43;;;2.65;;
78298;SDS011;67556;55.656;12.590;2023-03-14T11:01:17;2.67;;;1.65;;
78298;SDS011;67556;55.656;12.590;2023-03-14T11:03:54;1.27;;;1.17;;
78298;SDS011;67556;55.656;12.590;2023-03-14T11:06:26;1.33;;;1.23;;
78298;SDS011;67556;55.656;12.590;2023-03-14T11:09:01;6.35;;;1.90;;
78298;SDS011;67556;55.656;12.590;2023-03-14T11:11:36;4.25;;;1.75;;
78298;SDS011;67556;55.656;12.590;2023-03-14T11:14:11;8.18;;;2.05;;
78298;SDS011;67556;55.656;12.590;2023-03-14T11:16:48;3.70;;;1.90;;
78298;SDS011;67556;55.656;12.590;2023-03-14T11:19:21;4.07;;;1.90;;
78298;SDS011;67556;55.656;12.590;2023-03-14T11:21:59;5.10;;;1.85;;
78298;SDS011;67556;55.656;12.590;2023-03-14T11:24:36;4.82;;;1.60;;
78298;SDS011;67556;55.656;12.590;2023-03-14T11:27:14;6.10;;;2.10;;
78298;SDS011;67556;55.656;12.590;2023-03-14T11:29:46;5.68;;;1.75;;
78298;SDS011;67556;55.656;12.590;2023-03-14T11:32:21;4.28;;;1.90;;
78298;SDS011;67556;55.656;12.590;2023-03-14T11:34:54;6.32;;;2.20;;
78298;SDS011;67556;55.656;12.590;2023-03-14T11:37:23;7.07;;;2.38;;
78298;SDS011;67556;55.656;12.590;2023-03-14T11:39:56;4.57;;;1.77;;
78298;SDS011;67556;55.656;12.590;2023-03-14T11:42:27;6.40;;;2.15;;
78298;SDS011;67556;55.656;12.590;2023-03-14T11:44:57;5.93;;;2.50;;
78298;SDS011;67556;55.656;12.590;2023-03-14T11:47:26;7.90;;;2.05;;
78298;SDS011;67556;55.656;12.590;2023-03-14T11:49:58;5.85;;;2.03;;
78298;SDS011;67556;55.656;12.590;2023-03-14T11:52:30;4.38;;;1.88;;
78298;SDS011;67556;55.656;12.590;2023-03-14T11:55:01;5.18;;;2.05;;
78298;SDS011;67556;55.656;12.590;2023-03-14T11:57:31;9.02;;;2.13;;
78298;SDS011;67556;55.656;12.590;2023-03-14T12:00:00;7.47;;;2.20;;
78298;SDS011;67556;55.656;12.590;2023-03-14T12:02:33;6.82;;;1.92;;
78298;SDS011;67556;55.656;12.590;2023-03-14T12:05:21;5.53;;;2.20;;
78298;SDS011;67556;55.656;12.590;2023-03-14T12:10:59;4.88;;;1.67;;
78298;SDS011;67556;55.656;12.590;2023-03-14T12:13:28;7.43;;;1.92;;
78298;SDS011;67556;55.656;12.590;2023-03-14T12:16:00;6.15;;;2.50;;
78298;SDS011;67556;55.656;12.590;2023-03-14T12:18:31;5.68;;;2.17;;
78298;SDS011;67556;55.656;12.590;2023-03-14T12:20:59;6.18;;;2.08;;
78298;SDS011;67556;55.656;12.590;2023-03-14T12:23:33;2.97;;;2.00;;
78298;SDS011;67556;55.656;12.590;2023-03-14T12:26:07;3.70;;;1.80;;
78298;SDS011;67556;55.656;12.590;2023-03-14T12:28:39;7.00;;;2.05;;
78298;SDS011;67556;55.656;12.590;2023-03-14T12:34:26;5.45;;;2.40;;
78298;SDS011;67556;55.656;12.590;2023-03-14T12:36:56;7.60;;;2.35;;
78298;SDS011;67556;55.656;12.590;2023-03-14T12:39:37;3.88;;;1.45;;
78298;SDS011;67556;55.656;12.590;2023-03-14T12:42:12;7.68;;;2.17;;
78298;SDS011;67556;55.656;12.590;2023-03-14T12:44:42;5.53;;;2.33;;
78298;SDS011;67556;55.656;12.590;2023-03-14T12:50:15;4.38;;;2.38;;
78298;SDS011;67556;55.656;12.590;2023-03-14T12:52:50;6.18;;;2.05;;
78298;SDS011;67556;55.656;12.590;2023-03-14T12:55:32;4.18;;;1.77;;
78298;SDS011;67556;55.656;12.590;2023-03-14T12:58:03;11.82;;;2.55;;
78298;SDS011;67556;55.656;12.590;2023-03-14T13:00:35;3.85;;;1.75;;
78298;SDS011;67556;55.656;12.590;2023-03-14T13:03:17;4.03;;;1.65;;
78298;SDS011;67556;55.656;12.590;2023-03-14T13:05:53;3.00;;;1.83;;
78298;SDS011;67556;55.656;12.590;2023-03-14T13:08:32;5.25;;;1.77;;
78298;SDS011;67556;55.656;12.590;2023-03-14T13:11:01;7.85;;;3.17;;
78298;SDS011;67556;55.656;12.590;2023-03-14T13:13:28;4.25;;;1.85;;
78298;SDS011;67556;55.656;12.590;2023-03-14T13:15:55;8.40;;;2.10;;
78298;SDS011;67556;55.656;12.590;2023-03-14T13:18:28;5.32;;;2.13;;
78298;SDS011;67556;55.656;12.590;2023-03-14T13:20:59;7.38;;;1.88;;
78298;SDS011;67556;55.656;12.590;2023-03-14T13:23:30;8.07;;;2.20;;
78298;SDS011;67556;55.656;12.590;2023-03-14T13:25:58;4.75;;;2.53;;
78298;SDS011;67556;55.656;12.590;2023-03-14T13:28:26;5.03;;;1.65;;
78298;SDS011;67556;55.656;12.590;2023-03-14T13:30:54;6.25;;;2.38;;
78298;SDS011;67556;55.656;12.590;2023-03-14T13:33:23;7.30;;;1.83;;
78298;SDS011;67556;55.656;12.590;2023-03-14T13:35:55;3.72;;;1.90;;
78298;SDS011;67556;55.656;12.590;2023-03-14T13:38:23;5.63;;;2.03;;
78298;SDS011;67556;55.656;12.590;2023-03-14T13:40:53;9.98;;;2.80;;
78298;SDS011;67556;55.656;12.590;2023-03-14T13:43:25;4.22;;;2.05;;
78298;SDS011;67556;55.656;12.590;2023-03-14T13:45:56;6.95;;;2.15;;
78298;SDS011;67556;55.656;12.590;2023-03-14T13:48:28;5.13;;;1.65;;
78298;SDS011;67556;55.656;12.590;2023-03-14T13:51:00;5.63;;;2.20;;
78298;SDS011;67556;55.656;12.590;2023-03-14T13:53:29;7.70;;;2.25;;
78298;SDS011;67556;55.656;12.590;2023-03-14T13:55:56;2.38;;;1.58;;
78298;SDS011;67556;55.656;12.590;2023-03-14T13:58:25;3.92;;;1.92;;
78298;SDS011;67556;55.656;12.590;2023-03-14T14:00:57;6.05;;;2.03;;
78298;SDS011;67556;55.656;12.590;2023-03-14T14:03:28;5.25;;;1.95;;
78298;SDS011;67556;55.656;12.590;2023-03-14T14:05:58;4.22;;;1.88;;
78298;SDS011;67556;55.656;12.590;2023-03-14T14:08:25;4.50;;;1.67;;
78298;SDS011;67556;55.656;12.590;2023-03-14T14:10:53;5.70;;;2.30;;
78298;SDS011;67556;55.656;12.590;2023-03-14T14:13:25;6.40;;;2.60;;
78298;SDS011;67556;55.656;12.590;2023-03-14T14:15:56;5.22;;;2.00;;
78298;SDS011;67556;55.656;12.590;2023-03-14T14:18:26;2.58;;;1.60;;
78298;SDS011;67556;55.656;12.590;2023-03-14T14:20:54;7.22;;;2.20;;
78298;SDS011;67556;55.656;12.590;2023-03-14T14:23:24;6.00;;;2.15;;
78298;SDS011;67556;55.656;12.590;2023-03-14T14:25:54;4.38;;;1.80;;
78298;SDS011;67556;55.656;12.590;2023-03-14T14:28:24;6.45;;;1.90;;
78298;SDS011;67556;55.656;12.590;2023-03-14T14:31:00;4.70;;;2.00;;
78298;SDS011;67556;55.656;12.590;2023-03-14T14:33:29;6.75;;;1.73;;
78298;SDS011;67556;55.656;12.590;2023-03-14T14:36:04;3.38;;;1.83;;
78298;SDS011;67556;55.656;12.590;2023-03-14T14:38:32;4.35;;;1.92;;
78298;SDS011;67556;55.656;12.590;2023-03-14T14:40:59;6.80;;;2.08;;
78298;SDS011;67556;55.656;12.590;2023-03-14T14:43:28;4.45;;;1.88;;
78298;SDS011;67556;55.656;12.590;2023-03-14T14:46:05;2.78;;;1.60;;
78298;SDS011;67556;55.656;12.590;2023-03-14T14:48:35;4.30;;;2.13;;
78298;SDS011;67556;55.656;12.590;2023-03-14T14:51:04;6.40;;;1.70;;